sensor_id;sensor_type;location;lat;lon;timestamp;P1;durP1;ratioP1;P2;durP2;ratioP2
64459;SDS011;50828;53.756;21.140;2023-01-16T00:03:09;8.50;;;3.40;;
64459;SDS011;50828;53.756;21.140;2023-01-16T00:08:17;7.40;;;3.20;;
64459;SDS011;50828;53.756;21.140;2023-01-16T00:13:25;7.10;;;3.10;;
64459;SDS011;50828;53.756;21.140;2023-01-16T00:18:34;6.70;;;2.70;;
64459;SDS011;50828;53.756;21.140;2023-01-16T00:23:43;6.10;;;2.80;;
64459;SDS011;50828;53.756;21.140;2023-01-16T00:28:51;6.60;;;2.60;;
64459;SDS011;50828;53.756;21.140;2023-01-16T00:34:00;7.20;;;3.20;;
64459;SDS011;50828;53.756;21.140;2023-01-16T00:39:09;7.60;;;2.40;;
64459;SDS011;50828;53.756;21.140;2023-01-16T00:44:18;5.40;;;2.60;;
64459;SDS011;50828;53.756;21.140;2023-01-16T00:49:26;5.70;;;2.80;;
64459;SDS011;50828;53.756;21.140;2023-01-16T00:54:34;5.00;;;2.40;;
64459;SDS011;50828;53.756;21.140;2023-01-16T00:59:43;6.60;;;2.50;;
64459;SDS011;50828;53.756;21.140;2023-01-16T01:04:51;7.90;;;2.70;;
64459;SDS011;50828;53.756;21.140;2023-01-16T01:10:00;7.20;;;2.40;;
64459;SDS011;50828;53.756;21.140;2023-01-16T01:15:09;7.00;;;2.80;;
64459;SDS011;50828;53.756;21.140;2023-01-16T01:20:17;9.40;;;3.20;;
64459;SDS011;50828;53.756;21.140;2023-01-16T01:25:26;7.60;;;2.90;;
64459;SDS011;50828;53.756;21.140;2023-01-16T01:30:34;9.60;;;3.70;;
64459;SDS011;50828;53.756;21.140;2023-01-16T01:35:43;9.80;;;3.20;;
64459;SDS011;50828;53.756;21.140;2023-01-16T01:40:51;8.00;;;3.40;;
64459;SDS011;50828;53.756;21.140;2023-01-16T01:46:00;9.80;;;3.30;;
64459;SDS011;50828;53.756;21.140;2023-01-16T01:51:09;9.30;;;3.20;;
64459;SDS011;50828;53.756;21.140;2023-01-16T01:56:22;10.10;;;3.00;;
64459;SDS011;50828;53.756;21.140;2023-01-16T02:01:36;8.10;;;2.70;;
64459;SDS011;50828;53.756;21.140;2023-01-16T02:06:46;7.40;;;3.00;;
64459;SDS011;50828;53.756;21.140;2023-01-16T02:11:58;6.80;;;2.60;;
64459;SDS011;50828;53.756;21.140;2023-01-16T02:17:11;7.10;;;2.50;;
64459;SDS011;50828;53.756;21.140;2023-01-16T02:34:32;8.80;;;2.60;;
64459;SDS011;50828;53.756;21.140;2023-01-16T02:39:56;7.40;;;2.90;;
64459;SDS011;50828;53.756;21.140;2023-01-16T02:45:21;8.60;;;3.10;;
64459;SDS011;50828;53.756;21.140;2023-01-16T02:50:38;8.30;;;2.90;;
64459;SDS011;50828;53.756;21.140;2023-01-16T02:55:53;7.90;;;2.60;;
64459;SDS011;50828;53.756;21.140;2023-01-16T03:01:08;10.30;;;3.40;;
64459;SDS011;50828;53.756;21.140;2023-01-16T03:11:51;14.00;;;3.50;;
64459;SDS011;50828;53.756;21.140;2023-01-16T03:17:16;13.10;;;3.50;;
64459;SDS011;50828;53.756;21.140;2023-01-16T03:22:37;7.30;;;3.30;;
64459;SDS011;50828;53.756;21.140;2023-01-16T03:27:53;12.00;;;4.00;;
64459;SDS011;50828;53.756;21.140;2023-01-16T03:33:09;7.00;;;3.20;;
64459;SDS011;50828;53.756;21.140;2023-01-16T03:38:21;11.70;;;3.60;;
64459;SDS011;50828;53.756;21.140;2023-01-16T03:43:33;6.30;;;2.80;;
64459;SDS011;50828;53.756;21.140;2023-01-16T03:48:44;10.90;;;3.40;;
64459;SDS011;50828;53.756;21.140;2023-01-16T03:53:59;5.40;;;2.70;;
64459;SDS011;50828;53.756;21.140;2023-01-16T03:59:13;6.00;;;2.50;;
64459;SDS011;50828;53.756;21.140;2023-01-16T04:04:24;10.80;;;3.20;;
64459;SDS011;50828;53.756;21.140;2023-01-16T04:09:38;10.80;;;3.40;;
64459;SDS011;50828;53.756;21.140;2023-01-16T04:14:56;10.50;;;3.40;;
64459;SDS011;50828;53.756;21.140;2023-01-16T04:20:11;9.60;;;3.00;;
64459;SDS011;50828;53.756;21.140;2023-01-16T04:25:20;7.90;;;2.70;;
64459;SDS011;50828;53.756;21.140;2023-01-16T04:30:29;7.60;;;2.80;;
64459;SDS011;50828;53.756;21.140;2023-01-16T04:35:38;5.50;;;3.10;;
64459;SDS011;50828;53.756;21.140;2023-01-16T04:40:46;9.50;;;3.10;;
64459;SDS011;50828;53.756;21.140;2023-01-16T04:45:54;8.00;;;2.70;;
64459;SDS011;50828;53.756;21.140;2023-01-16T04:51:03;6.80;;;2.60;;
64459;SDS011;50828;53.756;21.140;2023-01-16T04:56:14;6.10;;;2.10;;
64459;SDS011;50828;53.756;21.140;2023-01-16T05:01:22;7.40;;;2.00;;
64459;SDS011;50828;53.756;21.140;2023-01-16T05:06:31;5.70;;;1.90;;
64459;SDS011;50828;53.756;21.140;2023-01-16T05:11:40;7.00;;;2.60;;
64459;SDS011;50828;53.756;21.140;2023-01-16T05:16:49;4.70;;;1.90;;
64459;SDS011;50828;53.756;21.140;2023-01-16T05:21:57;4.00;;;2.00;;
64459;SDS011;50828;53.756;21.140;2023-01-16T05:27:06;6.60;;;1.90;;
64459;SDS011;50828;53.756;21.140;2023-01-16T05:32:14;5.90;;;1.50;;
64459;SDS011;50828;53.756;21.140;2023-01-16T05:37:23;7.90;;;1.60;;
64459;SDS011;50828;53.756;21.140;2023-01-16T05:42:31;4.40;;;1.60;;
64459;SDS011;50828;53.756;21.140;2023-01-16T05:47:40;7.10;;;2.20;;
64459;SDS011;50828;53.756;21.140;2023-01-16T05:52:49;5.80;;;1.70;;
64459;SDS011;50828;53.756;21.140;2023-01-16T05:57:58;7.10;;;2.30;;
64459;SDS011;50828;53.756;21.140;2023-01-16T06:03:06;4.90;;;1.80;;
64459;SDS011;50828;53.756;21.140;2023-01-16T06:08:15;5.00;;;2.00;;
64459;SDS011;50828;53.756;21.140;2023-01-16T06:13:23;8.80;;;1.90;;
64459;SDS011;50828;53.756;21.140;2023-01-16T06:18:31;5.20;;;2.20;;
64459;SDS011;50828;53.756;21.140;2023-01-16T06:23:40;4.40;;;2.10;;
64459;SDS011;50828;53.756;21.140;2023-01-16T06:28:48;7.60;;;3.00;;
64459;SDS011;50828;53.756;21.140;2023-01-16T06:33:56;6.90;;;2.40;;
64459;SDS011;50828;53.756;21.140;2023-01-16T06:39:05;5.10;;;1.80;;
64459;SDS011;50828;53.756;21.140;2023-01-16T06:44:14;4.30;;;1.80;;
64459;SDS011;50828;53.756;21.140;2023-01-16T06:49:23;9.00;;;2.60;;
64459;SDS011;50828;53.756;21.140;2023-01-16T06:54:31;4.80;;;2.30;;
64459;SDS011;50828;53.756;21.140;2023-01-16T06:59:39;4.10;;;2.20;;
64459;SDS011;50828;53.756;21.140;2023-01-16T07:04:48;6.20;;;2.60;;
64459;SDS011;50828;53.756;21.140;2023-01-16T07:09:56;6.90;;;2.90;;
64459;SDS011;50828;53.756;21.140;2023-01-16T07:15:05;7.20;;;3.20;;
64459;SDS011;50828;53.756;21.140;2023-01-16T07:20:33;5.20;;;2.80;;
64459;SDS011;50828;53.756;21.140;2023-01-16T07:26:00;6.80;;;3.10;;
64459;SDS011;50828;53.756;21.140;2023-01-16T07:31:12;7.20;;;3.60;;
64459;SDS011;50828;53.756;21.140;2023-01-16T07:36:21;8.00;;;3.10;;
64459;SDS011;50828;53.756;21.140;2023-01-16T07:41:31;6.50;;;3.20;;
64459;SDS011;50828;53.756;21.140;2023-01-16T07:46:45;8.80;;;4.00;;
64459;SDS011;50828;53.756;21.140;2023-01-16T07:51:53;8.00;;;3.50;;
64459;SDS011;50828;53.756;21.140;2023-01-16T07:57:02;8.10;;;3.40;;
64459;SDS011;50828;53.756;21.140;2023-01-16T08:02:10;6.40;;;3.00;;
64459;SDS011;50828;53.756;21.140;2023-01-16T08:07:19;8.70;;;4.60;;
64459;SDS011;50828;53.756;21.140;2023-01-16T08:12:27;9.60;;;4.30;;
64459;SDS011;50828;53.756;21.140;2023-01-16T08:17:35;11.20;;;4.10;;
64459;SDS011;50828;53.756;21.140;2023-01-16T08:22:47;12.00;;;4.50;;
64459;SDS011;50828;53.756;21.140;2023-01-16T08:27:56;10.40;;;4.20;;
64459;SDS011;50828;53.756;21.140;2023-01-16T08:33:04;10.10;;;4.50;;
64459;SDS011;50828;53.756;21.140;2023-01-16T08:38:13;12.60;;;5.30;;
64459;SDS011;50828;53.756;21.140;2023-01-16T08:43:22;14.30;;;4.60;;
64459;SDS011;50828;53.756;21.140;2023-01-16T08:48:47;12.60;;;4.90;;
64459;SDS011;50828;53.756;21.140;2023-01-16T08:54:13;12.30;;;4.90;;
64459;SDS011;50828;53.756;21.140;2023-01-16T08:59:21;11.30;;;4.00;;
64459;SDS011;50828;53.756;21.140;2023-01-16T09:04:30;9.80;;;4.80;;
64459;SDS011;50828;53.756;21.140;2023-01-16T09:09:40;12.60;;;5.00;;
64459;SDS011;50828;53.756;21.140;2023-01-16T09:14:49;9.00;;;4.70;;
64459;SDS011;50828;53.756;21.140;2023-01-16T09:19:59;13.40;;;5.30;;
64459;SDS011;50828;53.756;21.140;2023-01-16T09:25:09;13.30;;;6.40;;
64459;SDS011;50828;53.756;21.140;2023-01-16T09:30:17;13.10;;;5.50;;
64459;SDS011;50828;53.756;21.140;2023-01-16T09:35:26;12.40;;;5.60;;
64459;SDS011;50828;53.756;21.140;2023-01-16T09:40:34;11.00;;;5.00;;
64459;SDS011;50828;53.756;21.140;2023-01-16T09:45:43;10.30;;;5.00;;
64459;SDS011;50828;53.756;21.140;2023-01-16T09:50:54;9.80;;;4.50;;
64459;SDS011;50828;53.756;21.140;2023-01-16T09:56:08;11.20;;;5.20;;
64459;SDS011;50828;53.756;21.140;2023-01-16T10:01:36;14.20;;;5.20;;
64459;SDS011;50828;53.756;21.140;2023-01-16T10:06:52;12.40;;;5.30;;
64459;SDS011;50828;53.756;21.140;2023-01-16T10:12:26;10.40;;;4.80;;
64459;SDS011;50828;53.756;21.140;2023-01-16T10:17:41;9.30;;;4.40;;
64459;SDS011;50828;53.756;21.140;2023-01-16T10:23:02;12.00;;;4.60;;
64459;SDS011;50828;53.756;21.140;2023-01-16T10:28:25;9.80;;;4.50;;
64459;SDS011;50828;53.756;21.140;2023-01-16T10:33:44;10.20;;;4.40;;
64459;SDS011;50828;53.756;21.140;2023-01-16T10:38:59;10.30;;;4.90;;
64459;SDS011;50828;53.756;21.140;2023-01-16T10:44:10;10.90;;;4.60;;
64459;SDS011;50828;53.756;21.140;2023-01-16T10:49:46;12.10;;;4.60;;
64459;SDS011;50828;53.756;21.140;2023-01-16T10:54:55;8.40;;;4.20;;
64459;SDS011;50828;53.756;21.140;2023-01-16T11:00:06;12.10;;;5.00;;
64459;SDS011;50828;53.756;21.140;2023-01-16T11:05:29;10.50;;;4.80;;
64459;SDS011;50828;53.756;21.140;2023-01-16T11:10:40;11.00;;;5.00;;
64459;SDS011;50828;53.756;21.140;2023-01-16T11:16:03;15.90;;;5.80;;
64459;SDS011;50828;53.756;21.140;2023-01-16T11:21:42;10.00;;;4.90;;
64459;SDS011;50828;53.756;21.140;2023-01-16T11:26:55;10.30;;;5.00;;
64459;SDS011;50828;53.756;21.140;2023-01-16T11:32:08;9.60;;;5.10;;
64459;SDS011;50828;53.756;21.140;2023-01-16T11:42:27;7.40;;;4.10;;
64459;SDS011;50828;53.756;21.140;2023-01-16T11:47:54;11.50;;;5.20;;
64459;SDS011;50828;53.756;21.140;2023-01-16T11:53:07;11.80;;;5.50;;
64459;SDS011;50828;53.756;21.140;2023-01-16T11:58:17;12.20;;;5.20;;
64459;SDS011;50828;53.756;21.140;2023-01-16T12:09:17;9.00;;;4.90;;
64459;SDS011;50828;53.756;21.140;2023-01-16T12:14:45;12.40;;;5.40;;
64459;SDS011;50828;53.756;21.140;2023-01-16T12:20:03;11.40;;;5.50;;
64459;SDS011;50828;53.756;21.140;2023-01-16T12:25:23;11.60;;;5.20;;
64459;SDS011;50828;53.756;21.140;2023-01-16T12:30:44;10.90;;;5.10;;
64459;SDS011;50828;53.756;21.140;2023-01-16T12:36:28;13.00;;;5.50;;
64459;SDS011;50828;53.756;21.140;2023-01-16T12:41:48;14.10;;;5.60;;
64459;SDS011;50828;53.756;21.140;2023-01-16T12:47:35;17.40;;;6.60;;
64459;SDS011;50828;53.756;21.140;2023-01-16T12:53:16;16.10;;;6.90;;
64459;SDS011;50828;53.756;21.140;2023-01-16T12:58:42;15.00;;;6.50;;
64459;SDS011;50828;53.756;21.140;2023-01-16T13:03:54;16.60;;;6.80;;
64459;SDS011;50828;53.756;21.140;2023-01-16T13:09:14;16.70;;;7.50;;
64459;SDS011;50828;53.756;21.140;2023-01-16T13:14:28;18.60;;;7.20;;
64459;SDS011;50828;53.756;21.140;2023-01-16T13:19:38;17.10;;;6.80;;
64459;SDS011;50828;53.756;21.140;2023-01-16T13:24:49;14.00;;;5.70;;
64459;SDS011;50828;53.756;21.140;2023-01-16T13:30:04;10.10;;;5.20;;
64459;SDS011;50828;53.756;21.140;2023-01-16T13:35:19;13.30;;;4.90;;
64459;SDS011;50828;53.756;21.140;2023-01-16T13:46:12;10.90;;;5.60;;
64459;SDS011;50828;53.756;21.140;2023-01-16T13:51:22;14.80;;;6.50;;
64459;SDS011;50828;53.756;21.140;2023-01-16T13:56:32;16.10;;;6.90;;
64459;SDS011;50828;53.756;21.140;2023-01-16T14:13:18;19.10;;;7.90;;
64459;SDS011;50828;53.756;21.140;2023-01-16T14:18:37;17.20;;;8.50;;
64459;SDS011;50828;53.756;21.140;2023-01-16T14:23:47;12.80;;;6.70;;
64459;SDS011;50828;53.756;21.140;2023-01-16T14:29:09;16.80;;;7.50;;
64459;SDS011;50828;53.756;21.140;2023-01-16T14:34:25;20.40;;;8.10;;
64459;SDS011;50828;53.756;21.140;2023-01-16T14:39:36;19.80;;;8.20;;
64459;SDS011;50828;53.756;21.140;2023-01-16T14:45:04;20.50;;;7.70;;
64459;SDS011;50828;53.756;21.140;2023-01-16T14:50:44;25.20;;;8.80;;
64459;SDS011;50828;53.756;21.140;2023-01-16T14:56:21;20.90;;;7.50;;
64459;SDS011;50828;53.756;21.140;2023-01-16T15:01:34;16.70;;;6.50;;
64459;SDS011;50828;53.756;21.140;2023-01-16T15:07:05;17.70;;;6.90;;
64459;SDS011;50828;53.756;21.140;2023-01-16T15:12:15;11.10;;;6.40;;
64459;SDS011;50828;53.756;21.140;2023-01-16T15:17:28;13.80;;;6.00;;
64459;SDS011;50828;53.756;21.140;2023-01-16T15:22:57;14.00;;;7.10;;
64459;SDS011;50828;53.756;21.140;2023-01-16T15:28:09;18.10;;;7.80;;
64459;SDS011;50828;53.756;21.140;2023-01-16T15:33:26;21.10;;;8.40;;
64459;SDS011;50828;53.756;21.140;2023-01-16T15:38:53;16.60;;;7.90;;
64459;SDS011;50828;53.756;21.140;2023-01-16T15:44:05;19.60;;;8.20;;
64459;SDS011;50828;53.756;21.140;2023-01-16T15:49:36;20.30;;;8.60;;
64459;SDS011;50828;53.756;21.140;2023-01-16T15:54:57;19.70;;;10.30;;
64459;SDS011;50828;53.756;21.140;2023-01-16T16:05:33;24.80;;;11.30;;
64459;SDS011;50828;53.756;21.140;2023-01-16T16:10:43;39.30;;;14.20;;
64459;SDS011;50828;53.756;21.140;2023-01-16T16:16:17;61.10;;;19.10;;
64459;SDS011;50828;53.756;21.140;2023-01-16T16:21:47;34.20;;;12.40;;
64459;SDS011;50828;53.756;21.140;2023-01-16T16:27:12;23.80;;;10.40;;
64459;SDS011;50828;53.756;21.140;2023-01-16T16:37:31;24.30;;;9.80;;
64459;SDS011;50828;53.756;21.140;2023-01-16T16:42:51;26.70;;;12.00;;
64459;SDS011;50828;53.756;21.140;2023-01-16T16:48:24;26.30;;;12.40;;
64459;SDS011;50828;53.756;21.140;2023-01-16T16:53:36;30.60;;;13.60;;
64459;SDS011;50828;53.756;21.140;2023-01-16T16:58:51;32.60;;;14.70;;
64459;SDS011;50828;53.756;21.140;2023-01-16T17:04:13;30.10;;;14.20;;
64459;SDS011;50828;53.756;21.140;2023-01-16T17:09:24;37.40;;;16.10;;
64459;SDS011;50828;53.756;21.140;2023-01-16T17:14:37;41.40;;;18.00;;
64459;SDS011;50828;53.756;21.140;2023-01-16T17:19:47;36.30;;;17.10;;
64459;SDS011;50828;53.756;21.140;2023-01-16T17:24:56;33.80;;;17.80;;
64459;SDS011;50828;53.756;21.140;2023-01-16T17:30:06;42.20;;;18.50;;
64459;SDS011;50828;53.756;21.140;2023-01-16T17:35:17;40.40;;;19.30;;
64459;SDS011;50828;53.756;21.140;2023-01-16T17:40:26;43.20;;;20.30;;
64459;SDS011;50828;53.756;21.140;2023-01-16T17:45:35;51.90;;;21.60;;
64459;SDS011;50828;53.756;21.140;2023-01-16T17:51:00;46.40;;;19.90;;
64459;SDS011;50828;53.756;21.140;2023-01-16T17:56:10;44.40;;;20.80;;
64459;SDS011;50828;53.756;21.140;2023-01-16T18:01:19;52.70;;;22.80;;
64459;SDS011;50828;53.756;21.140;2023-01-16T18:06:31;48.00;;;22.00;;
64459;SDS011;50828;53.756;21.140;2023-01-16T18:11:41;47.80;;;20.90;;
64459;SDS011;50828;53.756;21.140;2023-01-16T18:17:08;43.00;;;20.80;;
64459;SDS011;50828;53.756;21.140;2023-01-16T18:22:29;44.00;;;20.50;;
64459;SDS011;50828;53.756;21.140;2023-01-16T18:27:40;42.10;;;20.30;;
64459;SDS011;50828;53.756;21.140;2023-01-16T18:32:48;40.90;;;19.30;;
64459;SDS011;50828;53.756;21.140;2023-01-16T18:37:58;43.90;;;21.70;;
64459;SDS011;50828;53.756;21.140;2023-01-16T18:43:35;37.50;;;18.30;;
64459;SDS011;50828;53.756;21.140;2023-01-16T18:49:00;41.30;;;19.60;;
64459;SDS011;50828;53.756;21.140;2023-01-16T18:54:26;36.70;;;18.20;;
64459;SDS011;50828;53.756;21.140;2023-01-16T18:59:52;33.40;;;17.70;;
64459;SDS011;50828;53.756;21.140;2023-01-16T19:05:18;39.30;;;17.70;;
64459;SDS011;50828;53.756;21.140;2023-01-16T19:10:28;34.00;;;16.90;;
64459;SDS011;50828;53.756;21.140;2023-01-16T19:15:39;35.10;;;16.50;;
64459;SDS011;50828;53.756;21.140;2023-01-16T19:21:09;31.30;;;16.40;;
64459;SDS011;50828;53.756;21.140;2023-01-16T19:26:18;30.50;;;16.20;;
64459;SDS011;50828;53.756;21.140;2023-01-16T19:31:27;31.50;;;15.30;;
64459;SDS011;50828;53.756;21.140;2023-01-16T19:36:35;31.70;;;15.20;;
64459;SDS011;50828;53.756;21.140;2023-01-16T19:41:45;29.60;;;14.10;;
64459;SDS011;50828;53.756;21.140;2023-01-16T19:47:12;33.90;;;14.60;;
64459;SDS011;50828;53.756;21.140;2023-01-16T19:52:22;27.30;;;13.70;;
64459;SDS011;50828;53.756;21.140;2023-01-16T19:57:31;27.90;;;12.70;;
64459;SDS011;50828;53.756;21.140;2023-01-16T20:02:39;23.20;;;11.30;;
64459;SDS011;50828;53.756;21.140;2023-01-16T20:07:48;23.60;;;12.50;;
64459;SDS011;50828;53.756;21.140;2023-01-16T20:12:59;24.50;;;11.80;;
64459;SDS011;50828;53.756;21.140;2023-01-16T20:18:08;24.20;;;10.90;;
64459;SDS011;50828;53.756;21.140;2023-01-16T20:23:17;25.60;;;11.60;;
64459;SDS011;50828;53.756;21.140;2023-01-16T20:28:25;23.40;;;11.40;;
64459;SDS011;50828;53.756;21.140;2023-01-16T20:33:33;25.00;;;11.70;;
64459;SDS011;50828;53.756;21.140;2023-01-16T20:38:42;22.70;;;10.40;;
64459;SDS011;50828;53.756;21.140;2023-01-16T20:43:52;21.60;;;10.40;;
64459;SDS011;50828;53.756;21.140;2023-01-16T20:49:18;26.10;;;10.80;;
64459;SDS011;50828;53.756;21.140;2023-01-16T20:54:27;21.10;;;11.20;;
64459;SDS011;50828;53.756;21.140;2023-01-16T20:59:36;23.00;;;10.00;;
64459;SDS011;50828;53.756;21.140;2023-01-16T21:04:45;17.90;;;8.80;;
64459;SDS011;50828;53.756;21.140;2023-01-16T21:09:55;22.80;;;9.60;;
64459;SDS011;50828;53.756;21.140;2023-01-16T21:15:04;29.80;;;11.70;;
64459;SDS011;50828;53.756;21.140;2023-01-16T21:20:13;35.50;;;13.20;;
64459;SDS011;50828;53.756;21.140;2023-01-16T21:25:41;41.60;;;16.90;;
64459;SDS011;50828;53.756;21.140;2023-01-16T21:30:49;30.10;;;14.60;;
64459;SDS011;50828;53.756;21.140;2023-01-16T21:35:58;27.90;;;14.40;;
64459;SDS011;50828;53.756;21.140;2023-01-16T21:41:15;21.50;;;11.60;;
64459;SDS011;50828;53.756;21.140;2023-01-16T21:46:24;21.60;;;11.30;;
64459;SDS011;50828;53.756;21.140;2023-01-16T21:51:35;20.00;;;10.00;;
64459;SDS011;50828;53.756;21.140;2023-01-16T21:56:44;26.20;;;11.30;;
64459;SDS011;50828;53.756;21.140;2023-01-16T22:01:52;39.00;;;15.20;;
64459;SDS011;50828;53.756;21.140;2023-01-16T22:07:00;23.10;;;10.90;;
64459;SDS011;50828;53.756;21.140;2023-01-16T22:12:09;21.40;;;10.10;;
64459;SDS011;50828;53.756;21.140;2023-01-16T22:17:36;21.40;;;10.30;;
64459;SDS011;50828;53.756;21.140;2023-01-16T22:22:49;19.70;;;10.40;;
64459;SDS011;50828;53.756;21.140;2023-01-16T22:28:06;23.00;;;10.60;;
64459;SDS011;50828;53.756;21.140;2023-01-16T22:33:22;22.40;;;10.00;;
64459;SDS011;50828;53.756;21.140;2023-01-16T22:38:35;21.90;;;10.40;;
64459;SDS011;50828;53.756;21.140;2023-01-16T22:43:45;23.30;;;10.80;;
64459;SDS011;50828;53.756;21.140;2023-01-16T22:49:11;19.50;;;9.50;;
64459;SDS011;50828;53.756;21.140;2023-01-16T22:54:20;14.10;;;7.80;;
64459;SDS011;50828;53.756;21.140;2023-01-16T22:59:29;17.00;;;8.60;;
64459;SDS011;50828;53.756;21.140;2023-01-16T23:04:38;16.10;;;8.30;;
64459;SDS011;50828;53.756;21.140;2023-01-16T23:09:46;15.70;;;8.70;;
64459;SDS011;50828;53.756;21.140;2023-01-16T23:14:55;14.60;;;8.50;;
64459;SDS011;50828;53.756;21.140;2023-01-16T23:20:04;20.70;;;10.80;;
64459;SDS011;50828;53.756;21.140;2023-01-16T23:25:14;16.90;;;9.30;;
64459;SDS011;50828;53.756;21.140;2023-01-16T23:30:23;16.90;;;8.90;;
64459;SDS011;50828;53.756;21.140;2023-01-16T23:35:32;17.20;;;8.90;;
64459;SDS011;50828;53.756;21.140;2023-01-16T23:40:40;16.10;;;9.10;;
64459;SDS011;50828;53.756;21.140;2023-01-16T23:45:52;17.90;;;9.30;;
64459;SDS011;50828;53.756;21.140;2023-01-16T23:51:02;14.20;;;7.90;;
64459;SDS011;50828;53.756;21.140;2023-01-16T23:56:11;21.20;;;9.30;;
